Time;durP1;ratioP1;P1;durP2;ratioP2;P2;SDS_P1;SDS_P2;PMS_P1;PMS_P2;Temp;Humidity;BMP_temperature;BMP_pressure;BME280_temperature;BME280_humidity;BME280_pressure;Samples;Min_cycle;Max_cycle;Signal;HPM_P1;HPM_P2
2023/01/30 00:00:17;;;;;;;39.20;15.17;;;-3.10;99.90;;;;;;4993182;28;20286;-72
2023/01/30 00:02:43;;;;;;;31.83;14.73;;;-3.10;99.90;;;;;;4992806;28;20572;-71
2023/01/30 00:05:08;;;;;;;34.00;13.60;;;-3.10;99.90;;;;;;4993070;28;20187;-73
2023/01/30 00:07:34;;;;;;;31.30;12.63;;;-3.10;99.90;;;;;;4993407;28;20814;-72
2023/01/30 00:09:59;;;;;;;30.67;13.00;;;-3.00;99.90;;;;;;4993184;28;20188;-71
2023/01/30 00:12:25;;;;;;;32.13;13.40;;;-3.00;99.90;;;;;;4992912;28;20211;-73
2023/01/30 00:14:50;;;;;;;30.50;14.97;;;-3.10;99.90;;;;;;4992560;28;20187;-71
2023/01/30 00:17:16;;;;;;;32.73;13.30;;;-3.10;99.90;;;;;;4993035;28;20447;-71
2023/01/30 00:19:41;;;;;;;26.80;12.57;;;-3.20;99.90;;;;;;4992567;28;20203;-75
2023/01/30 00:22:07;;;;;;;31.20;12.87;;;-3.20;99.90;;;;;;4992667;28;20240;-72
2023/01/30 00:24:32;;;;;;;33.40;13.57;;;-3.20;99.90;;;;;;4990896;28;20210;-72
2023/01/30 00:26:58;;;;;;;28.90;12.90;;;-3.10;99.90;;;;;;4992657;28;20611;-73
2023/01/30 00:29:23;;;;;;;27.47;13.17;;;-3.10;99.90;;;;;;4992287;28;20302;-72
2023/01/30 00:31:49;;;;;;;29.03;12.90;;;-3.10;99.90;;;;;;4992065;28;20250;-71
2023/01/30 00:34:14;;;;;;;30.93;13.33;;;-3.10;99.90;;;;;;4992336;28;20253;-74
2023/01/30 00:36:40;;;;;;;23.83;11.80;;;-3.10;99.90;;;;;;4992354;28;20199;-71
2023/01/30 00:39:05;;;;;;;29.73;13.07;;;-3.10;99.90;;;;;;4992609;28;20187;-72
2023/01/30 00:47:04;;;;;;;32.77;13.80;;;-3.20;99.90;;;;;;4986094;28;20461;-72
2023/01/30 00:47:04;;;;;;;33.17;13.37;;;-3.10;99.90;;;;;;4992279;28;20298;-72
2023/01/30 00:49:29;;;;;;;30.60;13.40;;;-3.20;99.90;;;;;;4992213;28;20472;-73
2023/01/30 00:51:55;;;;;;;27.07;11.17;;;-3.20;99.90;;;;;;4992147;28;20421;-72
2023/01/30 00:54:20;;;;;;;28.87;12.90;;;-3.20;99.90;;;;;;4991784;28;20191;-72
2023/01/30 00:56:46;;;;;;;28.63;12.20;;;-3.20;99.90;;;;;;4991933;28;20202;-74
2023/01/30 00:59:11;;;;;;;28.87;12.47;;;-3.20;99.90;;;;;;4992322;28;20184;-71
2023/01/30 01:01:37;;;;;;;26.20;13.00;;;-3.20;99.90;;;;;;4991639;28;20231;-71
2023/01/30 01:04:02;;;;;;;31.90;12.70;;;-3.20;99.90;;;;;;4991608;28;20569;-72
2023/01/30 01:06:28;;;;;;;26.63;11.97;;;-3.20;99.90;;;;;;4991965;28;20687;-72
2023/01/30 01:08:53;;;;;;;28.27;12.23;;;-3.20;99.90;;;;;;4992126;28;20190;-72
2023/01/30 01:11:25;;;;;;;39.23;12.10;;;-3.20;99.90;;;;;;4991984;28;20217;-72
2023/01/30 01:13:55;;;;;;;34.57;14.13;;;-3.10;99.90;;;;;;4991405;28;20267;-74
2023/01/30 01:16:21;;;;;;;29.67;11.33;;;-3.10;99.90;;;;;;4990781;28;20470;-72
2023/01/30 01:18:47;;;;;;;30.10;12.97;;;-3.10;99.90;;;;;;4991707;28;20470;-71
2023/01/30 01:21:12;;;;;;;30.37;12.87;;;-3.00;99.90;;;;;;4991693;28;20539;-72
2023/01/30 01:23:38;;;;;;;31.93;13.70;;;-3.00;99.90;;;;;;4991490;28;20578;-73
2023/01/30 01:26:03;;;;;;;30.10;12.20;;;-2.90;99.90;;;;;;4991656;28;20198;-73
2023/01/30 01:28:29;;;;;;;35.73;13.07;;;-2.80;99.90;;;;;;4991563;28;20656;-69
2023/01/30 01:30:54;;;;;;;28.80;12.60;;;-2.80;99.90;;;;;;4991251;28;20225;-72
2023/01/30 01:33:20;;;;;;;27.77;13.70;;;-2.90;99.90;;;;;;4991530;28;20657;-72
2023/01/30 01:35:46;;;;;;;29.93;13.17;;;-2.80;99.90;;;;;;4991529;28;20229;-72
2023/01/30 01:38:12;;;;;;;31.10;13.57;;;-2.80;99.90;;;;;;4991244;28;20250;-72
2023/01/30 01:43:24;;;;;;;27.90;12.60;;;-2.90;99.90;;;;;;4991656;28;20452;-72
2023/01/30 01:45:57;;;;;;;27.47;13.80;;;-2.80;99.90;;;;;;4991042;28;20837;-72
2023/01/30 01:48:52;;;;;;;26.13;13.10;;;-2.80;99.90;;;;;;4991916;28;20442;-72
2023/01/30 01:51:32;;;;;;;27.87;12.70;;;-2.80;99.90;;;;;;4986989;28;20542;-73
2023/01/30 01:54:12;;;;;;;28.83;13.10;;;-2.90;99.90;;;;;;4984051;28;20531;-73
2023/01/30 01:56:42;;;;;;;26.50;12.87;;;-2.80;99.90;;;;;;4991419;28;20445;-73
2023/01/30 01:59:12;;;;;;;30.83;13.57;;;-2.70;99.90;;;;;;4991525;28;20437;-73
2023/01/30 03:32:15;;;;;;;25.50;10.47;;;-2.00;99.90;;;;;;5274776;22;20511;-72
2023/01/30 03:34:41;;;;;;;27.90;12.40;;;-1.90;99.90;;;;;;5050881;28;20420;-71
2023/01/30 03:37:06;;;;;;;28.97;11.97;;;-1.80;99.90;;;;;;5052402;28;20200;-71
2023/01/30 03:39:32;;;;;;;26.00;11.73;;;-1.60;99.90;;;;;;5051457;28;20676;-71
2023/01/30 03:41:57;;;;;;;24.47;10.60;;;-1.60;99.90;;;;;;5038755;28;20252;-72
2023/01/30 03:44:23;;;;;;;23.53;10.33;;;-1.50;99.90;;;;;;5032663;28;20193;-72
2023/01/30 03:46:48;;;;;;;24.87;11.73;;;-1.40;99.90;;;;;;5032712;28;20842;-72
2023/01/30 03:49:14;;;;;;;21.87;10.57;;;-1.40;99.90;;;;;;5032870;28;20183;-72
2023/01/30 03:51:39;;;;;;;22.20;9.83;;;-1.20;99.90;;;;;;5032430;28;20219;-71
2023/01/30 03:54:05;;;;;;;20.50;10.33;;;-1.20;99.90;;;;;;5032641;28;20193;-72
2023/01/30 03:56:30;;;;;;;21.60;9.47;;;-1.10;99.90;;;;;;5032675;28;20189;-72
2023/01/30 03:58:56;;;;;;;20.60;10.40;;;-1.10;99.90;;;;;;5032705;28;20220;-71
2023/01/30 04:01:22;;;;;;;19.63;8.60;;;-1.00;99.90;;;;;;5032398;28;20620;-71
2023/01/30 04:03:47;;;;;;;18.37;10.00;;;-0.90;99.90;;;;;;5022666;28;20191;-72
2023/01/30 04:06:13;;;;;;;20.57;10.03;;;-0.80;99.90;;;;;;5032621;28;20185;-71
2023/01/30 04:08:38;;;;;;;18.80;9.67;;;-0.80;99.90;;;;;;5032565;28;20678;-71
2023/01/30 04:11:04;;;;;;;19.97;10.00;;;-0.70;99.90;;;;;;5031987;28;20285;-72
2023/01/30 04:13:29;;;;;;;23.60;10.60;;;-0.60;99.90;;;;;;5032366;28;20188;-72
2023/01/30 04:16:18;;;;;;;19.87;9.80;;;-0.60;99.90;;;;;;5032309;28;20197;-71
2023/01/30 04:18:43;;;;;;;21.77;9.50;;;-0.50;99.90;;;;;;5014795;28;20314;-71
2023/01/30 04:21:09;;;;;;;21.73;10.30;;;-0.50;99.90;;;;;;5031993;28;20479;-71
2023/01/30 04:23:35;;;;;;;20.10;9.23;;;-0.50;99.90;;;;;;5032136;28;20229;-70
2023/01/30 04:26:00;;;;;;;21.93;9.97;;;-0.50;99.90;;;;;;5032248;28;20655;-71
2023/01/30 04:28:25;;;;;;;19.70;8.73;;;-0.50;99.90;;;;;;5032184;28;20202;-72
2023/01/30 04:30:52;;;;;;;20.13;9.20;;;-0.50;99.90;;;;;;5031828;28;20219;-72
2023/01/30 04:33:18;;;;;;;19.17;8.00;;;-0.50;99.90;;;;;;5031934;28;20651;-71
2023/01/30 04:35:58;;;;;;;18.87;9.07;;;-0.40;99.90;;;;;;5032244;28;20464;-71
2023/01/30 04:38:25;;;;;;;17.87;7.53;;;-0.30;99.90;;;;;;5032482;28;20192;-71
2023/01/30 04:40:52;;;;;;;19.27;9.00;;;-0.20;99.90;;;;;;5032380;28;20810;-72
2023/01/30 04:43:18;;;;;;;18.90;7.80;;;-0.10;99.90;;;;;;5032114;28;20478;-72
2023/01/30 04:45:45;;;;;;;16.80;8.00;;;-0.10;99.90;;;;;;5031530;28;20444;-71
2023/01/30 04:48:11;;;;;;;17.40;8.50;;;0.10;99.90;;;;;;5031406;28;20424;-71
2023/01/30 04:50:38;;;;;;;19.80;8.23;;;0.10;99.90;;;;;;5030628;28;20978;-71
2023/01/30 04:53:03;;;;;;;17.03;8.27;;;0.10;99.90;;;;;;5023801;28;20445;-72
2023/01/30 04:55:29;;;;;;;18.77;7.93;;;0.10;99.90;;;;;;5030775;28;20435;-72
2023/01/30 04:57:54;;;;;;;16.87;8.23;;;0.20;99.90;;;;;;5031557;28;20594;-72
2023/01/30 05:00:20;;;;;;;22.10;9.00;;;0.20;99.90;;;;;;5031512;28;20272;-72
2023/01/30 05:02:45;;;;;;;13.73;7.27;;;0.30;99.90;;;;;;5031582;28;20234;-72
2023/01/30 05:05:11;;;;;;;14.40;7.03;;;0.40;99.90;;;;;;5031330;28;20191;-72
2023/01/30 05:07:37;;;;;;;17.23;7.73;;;0.40;99.90;;;;;;5031567;28;20667;-72
2023/01/30 05:10:02;;;;;;;12.80;7.67;;;0.40;99.90;;;;;;5023465;28;20202;-72
2023/01/30 05:12:29;;;;;;;16.10;8.67;;;0.50;99.90;;;;;;5031179;28;20221;-71
2023/01/30 05:14:55;;;;;;;12.80;7.07;;;0.50;99.90;;;;;;5013390;28;20192;-71
2023/01/30 05:17:20;;;;;;;15.90;6.43;;;0.50;99.90;;;;;;5031597;28;20437;-72
2023/01/30 05:19:46;;;;;;;14.77;6.70;;;0.50;99.90;;;;;;5023342;28;20204;-72
2023/01/30 05:22:11;;;;;;;12.43;6.33;;;0.50;99.90;;;;;;5031320;28;20223;-72
2023/01/30 05:24:37;;;;;;;13.70;6.20;;;0.60;99.90;;;;;;5031192;28;20184;-72
2023/01/30 05:27:03;;;;;;;16.87;7.40;;;0.50;99.90;;;;;;5010776;28;20544;-72
2023/01/30 05:29:29;;;;;;;14.70;6.80;;;0.50;99.90;;;;;;5026671;28;20601;-72
2023/01/30 05:31:54;;;;;;;16.93;7.97;;;0.50;99.90;;;;;;5022309;28;20541;-72
2023/01/30 05:34:20;;;;;;;17.00;7.70;;;0.50;99.90;;;;;;5031020;28;20239;-72
2023/01/30 05:36:45;;;;;;;17.03;8.30;;;0.50;99.90;;;;;;5039408;28;20189;-71
2023/01/30 05:39:11;;;;;;;17.13;7.80;;;0.50;99.90;;;;;;5023481;28;20759;-72
2023/01/30 05:41:36;;;;;;;14.73;6.50;;;0.50;99.90;;;;;;5031107;28;20228;-72
2023/01/30 05:44:02;;;;;;;14.30;7.00;;;0.60;99.90;;;;;;5022919;28;20664;-71
2023/01/30 05:46:27;;;;;;;16.30;6.93;;;0.60;99.90;;;;;;5022876;28;20246;-72
2023/01/30 05:48:53;;;;;;;16.00;7.87;;;0.60;99.90;;;;;;5031342;28;20247;-71
2023/01/30 05:51:24;;;;;;;15.10;7.83;;;0.60;99.90;;;;;;5026243;28;20217;-72
2023/01/30 05:53:50;;;;;;;16.20;7.47;;;0.60;99.90;;;;;;5021495;28;20249;-73
2023/01/30 05:56:16;;;;;;;16.23;7.73;;;0.60;99.90;;;;;;5032284;28;20990;-72
2023/01/30 05:58:42;;;;;;;12.60;6.80;;;0.60;99.90;;;;;;5031868;28;20431;-71
2023/01/30 06:01:11;;;;;;;14.40;7.67;;;0.70;99.90;;;;;;5033418;28;20456;-72
2023/01/30 06:03:37;;;;;;;17.50;8.30;;;0.70;99.90;;;;;;5035480;28;20188;-70
2023/01/30 06:06:04;;;;;;;13.30;6.90;;;0.70;99.90;;;;;;5035344;28;20399;-72
2023/01/30 06:08:31;;;;;;;14.47;6.50;;;0.80;99.90;;;;;;5035011;28;20479;-72
2023/01/30 06:11:04;;;;;;;21.60;7.00;;;0.80;99.90;;;;;;5035184;28;20461;-72
2023/01/30 06:13:30;;;;;;;19.97;6.80;;;0.80;99.90;;;;;;5035252;28;20434;-72
2023/01/30 06:15:56;;;;;;;25.90;7.00;;;0.80;99.90;;;;;;5034653;28;20437;-72
2023/01/30 06:18:21;;;;;;;20.37;7.40;;;0.80;99.90;;;;;;5034755;28;20205;-72
2023/01/30 06:20:48;;;;;;;24.23;6.87;;;0.90;99.90;;;;;;5033979;28;20274;-71
2023/01/30 06:23:15;;;;;;;22.37;6.63;;;0.90;99.90;;;;;;5031794;28;20222;-71
2023/01/30 06:25:47;;;;;;;23.37;7.83;;;1.00;99.90;;;;;;5034062;28;20462;-72
2023/01/30 06:28:14;;;;;;;22.07;6.37;;;1.00;99.90;;;;;;5014155;28;20519;-72
2023/01/30 06:30:40;;;;;;;20.97;7.17;;;0.90;99.90;;;;;;5028681;28;20473;-72
2023/01/30 06:33:05;;;;;;;19.50;8.57;;;0.80;99.90;;;;;;5033840;28;20921;-73
2023/01/30 06:35:31;;;;;;;18.80;6.70;;;0.80;99.90;;;;;;5033408;28;20208;-72
2023/01/30 06:37:57;;;;;;;19.60;6.50;;;0.70;99.90;;;;;;5033582;28;20204;-72
2023/01/30 06:40:22;;;;;;;13.60;6.77;;;0.70;99.90;;;;;;5033902;28;20275;-71
2023/01/30 06:42:48;;;;;;;9.73;5.90;;;0.80;99.90;;;;;;5033986;28;20584;-71
2023/01/30 06:45:16;;;;;;;13.33;7.57;;;0.80;99.90;;;;;;5033240;28;20563;-71
2023/01/30 06:47:50;;;;;;;15.77;6.60;;;0.80;99.90;;;;;;5032334;28;20439;-71
2023/01/30 06:50:17;;;;;;;13.70;6.57;;;0.90;99.90;;;;;;5026191;28;20405;-71
2023/01/30 06:52:45;;;;;;;13.17;6.20;;;0.90;99.90;;;;;;5033873;28;20434;-71
2023/01/30 06:55:13;;;;;;;11.03;5.70;;;1.00;99.90;;;;;;5025713;28;20895;-71
2023/01/30 06:57:38;;;;;;;16.90;7.57;;;1.00;99.90;;;;;;5033893;28;20430;-71
2023/01/30 07:00:06;;;;;;;15.13;7.00;;;1.00;99.90;;;;;;5033685;28;20434;-71
2023/01/30 07:02:34;;;;;;;14.83;7.40;;;0.90;99.90;;;;;;5033135;28;20223;-71
2023/01/30 07:05:01;;;;;;;12.70;6.97;;;1.00;99.90;;;;;;5033775;28;20510;-71
2023/01/30 07:07:27;;;;;;;12.53;6.17;;;1.00;99.90;;;;;;5033790;28;20483;-71
2023/01/30 07:09:53;;;;;;;12.30;7.00;;;1.10;99.90;;;;;;5033651;28;20467;-70
2023/01/30 07:12:19;;;;;;;12.10;5.97;;;1.10;99.90;;;;;;5033030;28;20987;-72
2023/01/30 07:14:45;;;;;;;12.80;6.77;;;1.10;99.90;;;;;;5033615;28;20196;-71
2023/01/30 07:17:10;;;;;;;14.53;7.03;;;1.20;99.90;;;;;;5033637;28;20275;-71
2023/01/30 07:19:37;;;;;;;12.87;6.60;;;1.10;99.90;;;;;;5026934;28;20473;-71
2023/01/30 07:22:03;;;;;;;12.13;5.60;;;1.10;99.90;;;;;;5032147;28;20680;-71
2023/01/30 07:24:29;;;;;;;14.40;6.53;;;1.10;99.90;;;;;;5033067;28;20432;-72
2023/01/30 07:26:55;;;;;;;12.13;5.70;;;1.20;99.90;;;;;;5033491;28;20498;-72
2023/01/30 07:29:20;;;;;;;14.00;5.93;;;1.20;99.90;;;;;;5033315;28;20235;-71
2023/01/30 07:31:46;;;;;;;15.67;7.80;;;1.20;99.90;;;;;;5033210;28;20227;-71
2023/01/30 07:34:11;;;;;;;13.17;6.60;;;1.30;99.90;;;;;;5033184;28;20200;-72
2023/01/30 07:36:36;;;;;;;15.47;6.83;;;1.30;99.90;;;;;;5033082;28;20215;-71
2023/01/30 07:39:03;;;;;;;10.40;5.67;;;1.30;99.90;;;;;;5033442;28;20204;-71
2023/01/30 07:41:29;;;;;;;10.40;5.30;;;1.40;99.90;;;;;;5033110;28;20233;-71
2023/01/30 07:43:54;;;;;;;13.73;6.40;;;1.40;99.90;;;;;;5015465;28;20573;-71
2023/01/30 07:46:20;;;;;;;13.90;5.57;;;1.40;99.90;;;;;;5033178;28;20279;-72
2023/01/30 07:48:45;;;;;;;25.23;7.93;;;1.50;99.90;;;;;;5032952;28;20188;-71
2023/01/30 07:51:11;;;;;;;19.13;5.53;;;1.50;99.90;;;;;;5032988;28;20642;-72
2023/01/30 07:53:36;;;;;;;19.40;7.00;;;1.60;99.90;;;;;;5032794;28;20195;-70
2023/01/30 07:56:07;;;;;;;14.60;5.10;;;1.70;99.90;;;;;;5032872;28;20689;-72
2023/01/30 07:58:32;;;;;;;16.40;5.10;;;1.70;99.90;;;;;;5032889;28;20224;-71
2023/01/30 08:00:58;;;;;;;17.77;5.57;;;1.70;99.90;;;;;;5032712;28;21027;-71
2023/01/30 08:03:23;;;;;;;14.00;5.20;;;1.70;99.90;;;;;;5032537;28;20217;-72
2023/01/30 08:05:49;;;;;;;14.10;5.40;;;1.80;99.90;;;;;;5032635;28;20215;-71
2023/01/30 08:08:15;;;;;;;17.07;5.90;;;1.80;99.90;;;;;;5029298;28;20189;-71
2023/01/30 08:10:40;;;;;;;31.60;7.00;;;1.80;99.90;;;;;;5028039;28;20272;-71
2023/01/30 08:13:06;;;;;;;70.87;39.43;;;1.80;99.90;;;;;;5024502;28;20200;-71
2023/01/30 08:15:32;;;;;;;33.03;6.23;;;1.90;99.90;;;;;;5032328;28;20277;-71
2023/01/30 08:17:58;;;;;;;20.60;5.47;;;2.00;99.90;;;;;;5032308;28;20195;-72
2023/01/30 08:20:26;;;;;;;22.47;6.20;;;2.10;99.90;;;;;;5032308;28;20196;-71
2023/01/30 08:22:52;;;;;;;41.17;21.30;;;2.10;99.90;;;;;;5032098;28;20484;-69
2023/01/30 08:25:18;;;;;;;21.93;6.33;;;2.00;99.90;;;;;;5032029;28;20997;-72
2023/01/30 08:27:44;;;;;;;26.50;6.30;;;2.00;99.90;;;;;;5032434;28;20437;-71
2023/01/30 08:30:10;;;;;;;40.17;23.37;;;2.00;99.90;;;;;;5032117;28;20814;-72
2023/01/30 08:32:36;;;;;;;55.63;46.00;;;2.00;99.90;;;;;;5031801;28;20308;-70
2023/01/30 08:35:02;;;;;;;23.97;5.70;;;2.00;99.90;;;;;;5031916;28;20527;-72
2023/01/30 08:37:27;;;;;;;28.60;6.50;;;2.10;99.90;;;;;;5032106;28;20193;-72
2023/01/30 08:39:53;;;;;;;23.90;6.27;;;2.20;99.90;;;;;;5032401;28;20199;-71
2023/01/30 08:42:18;;;;;;;23.57;6.07;;;2.40;99.90;;;;;;5014358;28;20638;-72
2023/01/30 08:44:44;;;;;;;22.87;6.13;;;2.60;99.90;;;;;;5014242;28;20710;-72
2023/01/30 08:47:09;;;;;;;21.80;6.53;;;2.70;99.90;;;;;;5014321;28;20241;-72
2023/01/30 08:49:35;;;;;;;18.17;5.20;;;2.80;99.90;;;;;;5031798;28;20200;-71
2023/01/30 08:52:00;;;;;;;41.60;34.77;;;2.80;99.90;;;;;;5031701;28;20220;-72
2023/01/30 08:54:26;;;;;;;18.90;5.00;;;2.80;99.90;;;;;;5023671;28;20675;-73
2023/01/30 08:56:52;;;;;;;21.40;5.80;;;2.90;99.90;;;;;;5031758;28;20925;-71
2023/01/30 08:59:17;;;;;;;53.20;38.50;;;3.10;99.90;;;;;;5015532;28;20203;-73
2023/01/30 09:01:43;;;;;;;28.60;4.60;;;3.30;99.90;;;;;;5031366;28;20478;-72
2023/01/30 09:04:08;;;;;;;31.40;5.00;;;3.40;99.90;;;;;;5031441;28;20195;-72
2023/01/30 09:06:34;;;;;;;26.80;4.40;;;3.40;99.90;;;;;;5031504;28;20201;-72
2023/01/30 09:09:00;;;;;;;29.03;4.63;;;3.50;99.90;;;;;;5031525;28;20191;-71
2023/01/30 09:11:25;;;;;;;27.43;4.30;;;3.90;99.90;;;;;;5031358;28;20209;-73
2023/01/30 09:13:51;;;;;;;32.37;4.27;;;4.30;99.90;;;;;;5031435;28;20932;-75
2023/01/30 09:16:16;;;;;;;32.63;4.27;;;4.50;99.90;;;;;;5031417;28;20197;-73
2023/01/30 09:18:43;;;;;;;31.93;4.60;;;4.50;99.90;;;;;;5031543;28;20597;-72
2023/01/30 09:21:12;;;;;;;31.63;3.77;;;4.40;99.90;;;;;;5031143;28;20208;-72
2023/01/30 09:23:38;;;;;;;32.13;4.10;;;4.20;99.90;;;;;;5031098;28;20431;-70
2023/01/30 09:26:04;;;;;;;33.17;4.37;;;4.00;99.90;;;;;;5031504;28;20974;-72
2023/01/30 09:28:32;;;;;;;31.10;3.70;;;3.90;99.90;;;;;;5031433;28;20601;-74
2023/01/30 09:30:59;;;;;;;32.27;4.60;;;3.80;99.90;;;;;;5031160;28;20453;-72
2023/01/30 09:33:24;;;;;;;31.17;4.07;;;3.80;99.90;;;;;;5031362;28;20461;-73
2023/01/30 09:35:50;;;;;;;32.03;3.93;;;3.70;99.90;;;;;;5030652;28;20423;-72
2023/01/30 09:38:16;;;;;;;30.70;3.73;;;3.70;99.90;;;;;;5031132;28;20196;-72
2023/01/30 09:40:58;;;;;;;29.07;3.40;;;3.70;99.90;;;;;;5031262;28;20211;-71
2023/01/30 09:43:49;;;;;;;31.63;3.70;;;3.70;99.90;;;;;;5023534;28;20471;-72
2023/01/30 09:46:50;;;;;;;31.20;3.73;;;3.60;99.90;;;;;;5022903;28;20455;-72
2023/01/30 09:49:57;;;;;;;31.77;3.33;;;3.50;99.90;;;;;;4989098;28;20593;-74
2023/01/30 09:52:50;;;;;;;30.97;3.73;;;3.60;99.90;;;;;;4985273;28;20508;-72
2023/01/30 09:55:22;;;;;;;30.37;3.77;;;3.60;99.90;;;;;;5030789;28;20430;-72
2023/01/30 09:57:49;;;;;;;29.50;3.23;;;3.60;99.90;;;;;;5031139;28;20516;-72
2023/01/30 10:00:34;;;;;;;31.17;3.80;;;3.60;99.90;;;;;;5022912;28;20432;-72
2023/01/30 10:03:02;;;;;;;31.00;4.23;;;3.60;99.90;;;;;;5030820;28;20496;-74
2023/01/30 10:05:45;;;;;;;29.60;3.27;;;3.70;99.90;;;;;;5031256;28;20431;-74
2023/01/30 10:08:38;;;;;;;31.67;3.70;;;3.70;99.90;;;;;;5023156;28;20498;-73
2023/01/30 10:11:28;;;;;;;31.17;3.43;;;3.80;99.90;;;;;;5031241;28;20443;-72
2023/01/30 10:14:41;;;;;;;31.30;3.17;;;3.90;99.90;;;;;;5030923;28;20420;-72
2023/01/30 10:17:39;;;;;;;32.00;3.87;;;3.90;99.90;;;;;;4929380;29;20454;-74
2023/01/30 10:20:25;;;;;;;35.23;3.57;;;3.90;99.90;;;;;;5030872;28;20428;-73
2023/01/30 10:23:01;;;;;;;34.27;3.53;;;3.90;99.90;;;;;;5030904;28;20463;-72
2023/01/30 10:25:45;;;;;;;33.60;3.63;;;3.90;99.90;;;;;;5023375;28;20415;-72
2023/01/30 10:28:15;;;;;;;35.40;3.40;;;3.90;99.90;;;;;;5031281;28;20825;-71
2023/01/30 10:30:43;;;;;;;34.03;3.60;;;3.90;99.90;;;;;;5030658;28;21021;-72
2023/01/30 10:33:27;;;;;;;30.47;3.57;;;3.80;99.90;;;;;;5030751;28;20418;-73
2023/01/30 10:36:15;;;;;;;30.27;3.53;;;3.90;99.90;;;;;;5030676;28;20420;-73
2023/01/30 10:38:47;;;;;;;30.07;2.70;;;3.90;99.90;;;;;;5030898;28;20455;-74
2023/01/30 10:41:36;;;;;;;28.80;3.03;;;3.80;99.90;;;;;;5030749;28;20449;-71
2023/01/30 10:44:10;;;;;;;30.40;3.30;;;3.80;99.90;;;;;;5030539;28;20900;-73
2023/01/30 10:46:58;;;;;;;27.60;2.17;;;3.80;99.90;;;;;;5031001;28;20423;-74
2023/01/30 10:49:48;;;;;;;27.20;2.23;;;3.90;99.90;;;;;;5034261;28;20889;-74
2023/01/30 10:52:28;;;;;;;30.13;2.80;;;3.90;99.90;;;;;;5033945;28;20508;-74
2023/01/30 10:55:01;;;;;;;33.00;2.10;;;4.00;99.90;;;;;;5034167;28;20463;-73
2023/01/30 10:57:52;;;;;;;31.27;2.30;;;3.90;99.90;;;;;;5026636;28;20768;-75
2023/01/30 11:00:27;;;;;;;30.17;1.87;;;3.90;99.90;;;;;;5034116;28;20437;-73
2023/01/30 11:03:06;;;;;;;31.27;1.97;;;4.00;99.90;;;;;;5034241;28;20474;-73
2023/01/30 11:05:47;;;;;;;26.70;3.03;;;4.00;99.90;;;;;;5026930;28;20477;-73
2023/01/30 11:08:18;;;;;;;24.17;2.03;;;4.00;99.90;;;;;;5034205;28;20786;-73
2023/01/30 11:10:44;;;;;;;25.27;2.07;;;4.10;99.90;;;;;;5034234;28;20494;-72
2023/01/30 11:13:17;;;;;;;27.07;2.13;;;4.10;99.90;;;;;;5032905;28;20759;-72
2023/01/30 11:15:45;;;;;;;25.87;2.00;;;4.10;99.90;;;;;;5028309;28;20187;-73
2023/01/30 11:18:11;;;;;;;26.93;1.87;;;4.10;99.90;;;;;;5042341;28;20511;-73
2023/01/30 11:20:44;;;;;;;26.40;2.20;;;4.00;99.90;;;;;;5033843;28;20440;-72
2023/01/30 11:23:31;;;;;;;26.30;1.90;;;4.00;99.90;;;;;;5033716;28;20478;-74
2023/01/30 11:25:58;;;;;;;26.43;2.17;;;3.90;99.90;;;;;;5033621;28;20450;-73
2023/01/30 11:28:25;;;;;;;26.17;2.03;;;3.90;99.90;;;;;;5033990;28;20453;-74
2023/01/30 11:30:59;;;;;;;25.73;1.53;;;3.90;99.90;;;;;;5033841;28;20801;-73
2023/01/30 11:33:34;;;;;;;28.77;2.60;;;3.90;99.90;;;;;;5033080;28;20424;-73
2023/01/30 11:36:20;;;;;;;26.20;1.83;;;3.80;99.90;;;;;;5033261;28;20422;-75
2023/01/30 11:38:56;;;;;;;25.23;1.53;;;3.90;99.90;;;;;;5013156;28;20439;-73
2023/01/30 11:41:22;;;;;;;28.30;2.10;;;3.90;99.90;;;;;;5032162;28;20454;-74
2023/01/30 11:43:48;;;;;;;42.57;3.93;;;3.90;99.90;;;;;;5033099;28;20434;-73
2023/01/30 11:46:18;;;;;;;27.40;2.57;;;3.80;99.90;;;;;;5033115;28;20269;-73
2023/01/30 11:48:57;;;;;;;27.50;2.07;;;3.80;99.90;;;;;;5033120;28;20204;-73
2023/01/30 11:51:24;;;;;;;27.80;2.03;;;3.70;99.90;;;;;;5032741;28;20446;-73
2023/01/30 11:54:00;;;;;;;27.07;2.30;;;3.70;99.90;;;;;;5015130;28;20417;-73
2023/01/30 11:56:39;;;;;;;27.07;2.20;;;3.70;99.90;;;;;;5032809;28;20420;-72
2023/01/30 11:59:20;;;;;;;27.80;2.90;;;3.60;99.90;;;;;;5032565;28;20419;-72
2023/01/30 12:01:46;;;;;;;28.30;3.53;;;3.60;99.90;;;;;;5040874;28;20471;-72
2023/01/30 12:04:12;;;;;;;28.30;3.80;;;3.60;99.90;;;;;;5032383;28;20934;-72
2023/01/30 12:06:41;;;;;;;26.27;3.23;;;3.70;99.90;;;;;;5032732;28;20177;-72
2023/01/30 12:09:26;;;;;;;29.53;3.40;;;3.70;99.90;;;;;;5032582;28;20422;-71
2023/01/30 12:11:52;;;;;;;33.70;4.80;;;3.70;99.90;;;;;;5032464;28;20448;-72
2023/01/30 12:14:41;;;;;;;46.57;4.40;;;3.60;99.90;;;;;;5032204;28;20437;-72
2023/01/30 12:17:45;;;;;;;29.83;3.70;;;3.60;99.90;;;;;;5030877;28;20180;-71
2023/01/30 12:20:18;;;;;;;29.70;4.40;;;3.50;99.90;;;;;;4978991;28;20942;-72
2023/01/30 12:23:11;;;;;;;31.20;3.90;;;3.40;99.90;;;;;;5030046;28;20590;-72
2023/01/30 12:25:59;;;;;;;28.73;4.90;;;3.40;99.90;;;;;;5019870;28;20431;-72
2023/01/30 12:28:34;;;;;;;28.60;4.40;;;3.40;99.90;;;;;;4985630;28;20446;-72
2023/01/30 12:31:17;;;;;;;29.10;3.87;;;3.40;99.90;;;;;;5014642;28;20434;-72
2023/01/30 12:33:43;;;;;;;27.90;4.70;;;3.60;99.90;;;;;;5020527;28;20424;-73
2023/01/30 12:36:23;;;;;;;26.33;3.50;;;3.60;99.90;;;;;;5020868;28;20421;-72
2023/01/30 12:39:13;;;;;;;62.33;4.80;;;3.60;99.90;;;;;;5031868;28;20198;-72
2023/01/30 12:41:39;;;;;;;31.10;3.67;;;3.60;99.90;;;;;;5024749;28;20985;-72
2023/01/30 12:44:25;;;;;;;22.80;3.10;;;3.70;99.90;;;;;;5014044;28;20505;-73
2023/01/30 12:47:08;;;;;;;26.43;3.57;;;3.60;99.90;;;;;;5031946;28;20179;-72
2023/01/30 12:50:05;;;;;;;38.67;7.70;;;3.60;99.90;;;;;;5024282;28;20420;-73
2023/01/30 12:52:56;;;;;;;25.70;3.17;;;3.60;99.90;;;;;;5006237;28;20982;-72
2023/01/30 12:55:41;;;;;;;33.33;8.80;;;3.70;99.90;;;;;;5014185;28;20783;-73
2023/01/30 12:58:15;;;;;;;27.87;4.43;;;3.60;99.90;;;;;;5014124;28;20477;-72
2023/01/30 13:01:01;;;;;;;26.57;3.80;;;3.50;99.90;;;;;;5024725;28;20420;-72
2023/01/30 13:03:53;;;;;;;30.93;2.80;;;3.50;99.90;;;;;;5031497;28;20475;-72
2023/01/30 13:06:18;;;;;;;22.10;2.17;;;3.50;99.90;;;;;;5030977;28;20411;-73
2023/01/30 13:09:10;;;;;;;22.90;2.17;;;3.50;99.90;;;;;;5031975;28;20421;-72
2023/01/30 13:11:43;;;;;;;23.80;2.67;;;3.60;99.90;;;;;;5022988;28;20223;-72
2023/01/30 13:14:35;;;;;;;24.40;2.60;;;3.60;99.90;;;;;;5031343;28;20415;-71
2023/01/30 13:17:30;;;;;;;24.20;2.33;;;3.60;99.90;;;;;;5031563;28;20419;-72
2023/01/30 13:20:20;;;;;;;30.73;2.40;;;3.70;99.90;;;;;;5031625;28;20481;-72
2023/01/30 13:22:51;;;;;;;22.30;1.90;;;3.80;99.90;;;;;;5024875;28;20463;-72
2023/01/30 13:25:37;;;;;;;22.77;1.83;;;3.80;99.90;;;;;;5031396;28;20454;-72
2023/01/30 13:28:10;;;;;;;22.30;1.53;;;3.90;99.90;;;;;;5031587;28;21036;-72
2023/01/30 13:30:38;;;;;;;23.17;1.73;;;4.00;99.90;;;;;;5013410;28;20435;-72
2023/01/30 13:33:11;;;;;;;28.17;1.97;;;4.10;99.90;;;;;;5031462;28;20432;-72
2023/01/30 13:35:45;;;;;;;23.63;2.10;;;4.10;99.90;;;;;;5019798;28;20882;-73
2023/01/30 13:38:18;;;;;;;26.43;1.80;;;4.10;99.90;;;;;;5019874;28;20403;-72
2023/01/30 13:40:46;;;;;;;23.97;1.43;;;4.20;99.90;;;;;;5016350;28;20460;-72
2023/01/30 13:43:24;;;;;;;24.10;1.40;;;4.30;99.90;;;;;;5031339;28;20980;-72
2023/01/30 13:45:53;;;;;;;24.90;1.37;;;4.30;99.90;;;;;;4999970;28;20427;-72
2023/01/30 13:48:52;;;;;;;24.17;1.30;;;4.40;99.90;;;;;;5029291;28;20426;-72
2023/01/30 13:51:43;;;;;;;24.07;1.70;;;4.50;99.90;;;;;;5031075;28;20442;-72
2023/01/30 13:54:21;;;;;;;25.10;2.10;;;4.60;99.90;;;;;;5013499;28;20481;-72
2023/01/30 13:57:07;;;;;;;27.30;1.90;;;4.60;99.90;;;;;;5024679;28;20479;-72
2023/01/30 14:00:08;;;;;;;25.53;1.70;;;4.60;99.90;;;;;;5013259;28;20406;-72
2023/01/30 14:02:34;;;;;;;25.53;2.00;;;4.60;99.90;;;;;;5030951;28;20474;-71
2023/01/30 14:05:03;;;;;;;36.13;5.27;;;4.80;99.90;;;;;;5030840;28;20983;-71
2023/01/30 14:07:31;;;;;;;27.40;2.07;;;4.80;99.90;;;;;;5030862;28;20543;-73
2023/01/30 14:10:08;;;;;;;28.30;2.77;;;4.80;99.90;;;;;;5026172;28;20440;-72
2023/01/30 14:12:39;;;;;;;26.80;2.00;;;4.70;99.90;;;;;;5019002;28;20480;-70
2023/01/30 14:15:13;;;;;;;27.80;2.80;;;4.70;99.90;;;;;;5022076;28;20909;-71
2023/01/30 14:17:56;;;;;;;28.40;3.67;;;4.60;99.90;;;;;;5010885;28;20820;-72
2023/01/30 14:20:24;;;;;;;27.93;2.87;;;4.50;99.90;;;;;;5019743;28;20425;-69
2023/01/30 14:23:19;;;;;;;27.53;3.50;;;4.50;99.90;;;;;;5032678;28;20855;-71
2023/01/30 14:25:50;;;;;;;27.67;3.03;;;4.40;99.90;;;;;;5004432;28;20436;-71
2023/01/30 14:28:16;;;;;;;25.50;1.87;;;4.50;99.90;;;;;;5017977;28;20483;-72
2023/01/30 14:30:49;;;;;;;29.23;3.07;;;4.50;99.90;;;;;;5023868;28;20496;-73
2023/01/30 14:33:20;;;;;;;32.70;3.30;;;4.60;99.90;;;;;;5005830;28;20202;-70
2023/01/30 14:36:05;;;;;;;32.17;3.23;;;4.60;99.90;;;;;;5016096;28;20457;-71
2023/01/30 14:39:02;;;;;;;25.70;2.40;;;4.60;99.90;;;;;;4998252;28;20487;-72